Time;durP1;ratioP1;P1;durP2;ratioP2;P2;SDS_P1;SDS_P2;PMS_P1;PMS_P2;Temp;Humidity;BMP_temperature;BMP_pressure;BME280_temperature;BME280_humidity;BME280_pressure;Samples;Min_cycle;Max_cycle;Signal;HPM_P1;HPM_P2
2022/01/30 00:00:27;;;;;;;1.27;0.75;;;;;;;;;;5116024;28;20422;-58
2022/01/30 00:02:53;;;;;;;0.68;0.32;;;;;;;;;;5115968;28;20067;-58
2022/01/30 00:05:19;;;;;;;1.05;0.60;;;;;;;;;;5116189;28;20026;-58
2022/01/30 00:07:45;;;;;;;0.80;0.40;;;;;;;;;;5105503;28;20104;-58
2022/01/30 00:10:13;;;;;;;1.25;0.70;;;;;;;;;;5094997;28;20470;-58
2022/01/30 00:12:46;;;;;;;1.67;0.82;;;;;;;;;;5095716;28;20085;-58
2022/01/30 00:15:13;;;;;;;0.75;0.28;;;;;;;;;;5095489;28;20032;-58
2022/01/30 00:17:46;;;;;;;0.95;0.50;;;;;;;;;;5095509;28;20060;-58
2022/01/30 00:20:19;;;;;;;1.60;0.70;;;;;;;;;;5095232;28;20036;-58
2022/01/30 00:23:01;;;;;;;1.02;0.52;;;;;;;;;;5095257;28;20067;-58
2022/01/30 00:25:43;;;;;;;0.98;0.45;;;;;;;;;;5095479;28;20025;-58
2022/01/30 00:28:12;;;;;;;1.92;0.98;;;;;;;;;;5094517;28;20481;-59
2022/01/30 00:30:38;;;;;;;1.15;0.57;;;;;;;;;;5095228;28;20032;-59
2022/01/30 00:33:04;;;;;;;1.35;0.63;;;;;;;;;;5094875;28;20024;-58
2022/01/30 00:35:33;;;;;;;1.73;0.68;;;;;;;;;;5095014;28;20032;-59
2022/01/30 00:37:59;;;;;;;0.90;0.40;;;;;;;;;;5094559;28;20381;-59
2022/01/30 00:40:25;;;;;;;1.92;0.95;;;;;;;;;;5094975;28;20032;-59
2022/01/30 00:42:51;;;;;;;0.80;0.50;;;;;;;;;;5095014;28;20272;-59
2022/01/30 00:45:17;;;;;;;1.92;0.82;;;;;;;;;;5094807;28;20028;-59
2022/01/30 00:47:43;;;;;;;0.60;0.35;;;;;;;;;;5094621;28;20028;-59
2022/01/30 00:50:10;;;;;;;0.82;0.40;;;;;;;;;;5093577;28;20051;-59
2022/01/30 00:52:36;;;;;;;0.77;0.40;;;;;;;;;;5095335;28;20384;-58
2022/01/30 00:55:03;;;;;;;0.52;0.40;;;;;;;;;;5115146;28;20503;-57
2022/01/30 00:57:29;;;;;;;1.08;0.50;;;;;;;;;;5115191;28;20200;-58
2022/01/30 00:59:55;;;;;;;0.98;0.63;;;;;;;;;;5114343;28;20507;-58
2022/01/30 01:02:21;;;;;;;1.60;0.90;;;;;;;;;;5115152;28;20035;-58
2022/01/30 01:04:47;;;;;;;1.00;0.52;;;;;;;;;;5114926;28;20032;-58
2022/01/30 01:07:21;;;;;;;1.02;0.57;;;;;;;;;;5109395;28;20080;-58
2022/01/30 01:09:59;;;;;;;1.40;0.73;;;;;;;;;;5093849;28;20036;-59
2022/01/30 01:23:27;;;;;;;1.75;0.82;;;;;;;;;;5094569;28;20035;-58
2022/01/30 01:25:57;;;;;;;1.58;0.77;;;;;;;;;;5094307;28;20046;-58
2022/01/30 01:28:23;;;;;;;1.92;1.55;;;;;;;;;;5093608;28;20385;-57
2022/01/30 01:30:50;;;;;;;1.23;0.70;;;;;;;;;;5094080;28;20358;-58
2022/01/30 01:33:16;;;;;;;1.20;0.70;;;;;;;;;;5093991;28;20024;-58
2022/01/30 01:35:42;;;;;;;1.08;0.57;;;;;;;;;;5093669;28;20032;-56
2022/01/30 01:38:13;;;;;;;3.22;0.80;;;;;;;;;;5093744;28;20074;-58
2022/01/30 01:40:41;;;;;;;2.40;1.02;;;;;;;;;;5093984;28;20047;-58
2022/01/30 01:43:07;;;;;;;1.15;0.65;;;;;;;;;;5093839;28;20024;-57
2022/01/30 01:45:39;;;;;;;1.23;0.57;;;;;;;;;;5093799;28;20027;-58
2022/01/30 01:48:12;;;;;;;1.05;0.75;;;;;;;;;;5092926;28;20081;-58
2022/01/30 01:50:39;;;;;;;1.17;0.50;;;;;;;;;;5093635;28;20028;-57
2022/01/30 01:53:09;;;;;;;1.98;0.90;;;;;;;;;;5098465;28;20024;-58
2022/01/30 01:55:36;;;;;;;4.32;0.55;;;;;;;;;;5113962;28;20019;-58
2022/01/30 01:58:02;;;;;;;1.80;0.98;;;;;;;;;;5113254;28;20031;-58
2022/01/30 02:00:29;;;;;;;1.88;0.80;;;;;;;;;;5113532;28;20124;-58
2022/01/30 02:02:55;;;;;;;1.33;0.88;;;;;;;;;;5113506;28;20373;-58
2022/01/30 02:05:27;;;;;;;1.80;0.98;;;;;;;;;;5113878;28;20043;-59
2022/01/30 02:24:27;;;;;;;1.52;0.70;;;;;;;;;;5093464;28;20027;-59
2022/01/30 02:26:53;;;;;;;3.08;1.10;;;;;;;;;;5093060;28;20028;-58
2022/01/30 02:29:20;;;;;;;1.27;0.68;;;;;;;;;;5092420;28;20051;-58
2022/01/30 02:31:46;;;;;;;1.40;0.68;;;;;;;;;;5092667;28;20473;-58
2022/01/30 02:34:12;;;;;;;2.42;1.25;;;;;;;;;;5093147;28;20027;-58
2022/01/30 02:36:50;;;;;;;0.90;0.50;;;;;;;;;;5093020;28;20028;-59
2022/01/30 02:39:18;;;;;;;1.13;0.70;;;;;;;;;;5092134;28;20127;-59
2022/01/30 02:41:44;;;;;;;1.90;0.73;;;;;;;;;;5092472;28;20051;-58
2022/01/30 02:44:25;;;;;;;1.73;0.90;;;;;;;;;;5092587;28;20024;-58
2022/01/30 02:46:54;;;;;;;1.63;0.88;;;;;;;;;;5092942;28;20091;-58
2022/01/30 02:51:53;;;;;;;1.73;0.93;;;;;;;;;;5092784;28;20505;-58
2022/01/30 02:54:19;;;;;;;5.95;1.10;;;;;;;;;;5107709;28;20497;-58
2022/01/30 02:56:45;;;;;;;1.33;0.68;;;;;;;;;;5112953;28;20047;-59
2022/01/30 02:59:12;;;;;;;2.53;1.30;;;;;;;;;;5112371;28;20040;-58
2022/01/30 03:01:38;;;;;;;2.10;1.23;;;;;;;;;;5112636;28;20443;-59
2022/01/30 03:04:04;;;;;;;3.20;1.30;;;;;;;;;;5112865;28;20028;-59
2022/01/30 03:06:30;;;;;;;3.05;1.05;;;;;;;;;;5112616;28;20027;-59
2022/01/30 03:08:56;;;;;;;2.47;1.25;;;;;;;;;;5092018;28;20032;-59
2022/01/30 03:11:22;;;;;;;1.65;0.82;;;;;;;;;;5092417;28;20350;-58
2022/01/30 03:13:48;;;;;;;1.58;0.95;;;;;;;;;;5091739;28;20028;-59
2022/01/30 03:16:14;;;;;;;2.03;1.00;;;;;;;;;;5092627;28;20423;-58
2022/01/30 03:18:41;;;;;;;2.28;0.95;;;;;;;;;;5091616;28;20077;-59
2022/01/30 03:21:07;;;;;;;2.00;1.23;;;;;;;;;;5092311;28;20384;-59
2022/01/30 03:23:38;;;;;;;1.85;0.88;;;;;;;;;;5092120;28;20028;-58
2022/01/30 03:26:04;;;;;;;1.95;0.93;;;;;;;;;;5092007;28;20473;-59
2022/01/30 03:28:32;;;;;;;2.83;1.63;;;;;;;;;;5091779;28;20111;-58
2022/01/30 03:31:01;;;;;;;3.90;1.17;;;;;;;;;;5092235;28;20235;-59
2022/01/30 03:33:28;;;;;;;3.15;0.93;;;;;;;;;;5092115;28;20521;-59
2022/01/30 03:35:54;;;;;;;1.77;0.93;;;;;;;;;;5092194;28;20032;-59
2022/01/30 03:38:20;;;;;;;1.70;0.90;;;;;;;;;;5091067;28;20335;-59
2022/01/30 03:40:47;;;;;;;3.38;1.25;;;;;;;;;;5092196;28;20079;-59
2022/01/30 03:43:13;;;;;;;4.15;1.35;;;;;;;;;;5092148;28;20423;-59
2022/01/30 03:45:39;;;;;;;1.77;1.05;;;;;;;;;;5092069;28;20024;-59
2022/01/30 03:48:05;;;;;;;0.98;0.60;;;;;;;;;;5091567;28;20021;-59
2022/01/30 03:50:31;;;;;;;1.83;0.63;;;;;;;;;;5092033;28;20036;-59
2022/01/30 03:52:57;;;;;;;1.52;0.80;;;;;;;;;;5095347;28;20454;-59
2022/01/30 03:55:24;;;;;;;2.40;0.77;;;;;;;;;;5112178;28;20034;-59
2022/01/30 03:57:50;;;;;;;1.13;0.70;;;;;;;;;;5112034;28;20035;-59
2022/01/30 04:00:17;;;;;;;1.33;0.82;;;;;;;;;;5112546;28;20595;-58
2022/01/30 04:02:43;;;;;;;1.48;0.65;;;;;;;;;;5112156;28;20024;-58
2022/01/30 04:05:09;;;;;;;0.77;0.57;;;;;;;;;;5112359;28;20048;-59
2022/01/30 04:07:36;;;;;;;1.25;0.65;;;;;;;;;;5103598;28;20027;-58
2022/01/30 04:10:03;;;;;;;1.25;0.60;;;;;;;;;;5091371;28;20036;-58
2022/01/30 04:12:29;;;;;;;1.33;0.73;;;;;;;;;;5091612;28;20020;-58
2022/01/30 04:14:55;;;;;;;1.15;0.80;;;;;;;;;;5092142;28;20039;-59
2022/01/30 04:17:22;;;;;;;1.90;1.08;;;;;;;;;;5091792;28;20059;-58
2022/01/30 04:19:48;;;;;;;1.33;0.68;;;;;;;;;;5091167;28;20028;-59
2022/01/30 04:22:14;;;;;;;4.47;1.15;;;;;;;;;;5091888;28;20104;-58
2022/01/30 04:24:40;;;;;;;3.42;0.93;;;;;;;;;;5092083;28;20027;-58
2022/01/30 04:27:06;;;;;;;2.00;0.82;;;;;;;;;;5095491;28;20099;-59
2022/01/30 04:29:33;;;;;;;3.00;1.55;;;;;;;;;;5094825;28;20024;-58
2022/01/30 04:31:59;;;;;;;1.77;1.50;;;;;;;;;;5090497;28;20030;-58
2022/01/30 04:34:26;;;;;;;8.20;2.42;;;;;;;;;;5095235;28;20024;-59
2022/01/30 04:37:03;;;;;;;4.53;2.05;;;;;;;;;;5094714;28;20036;-58
2022/01/30 05:06:06;;;;;;;6.18;3.38;;;;;;;;;;5091040;27;20055;-58
2022/01/30 05:08:32;;;;;;;6.35;3.78;;;;;;;;;;5097966;28;20082;-57
2022/01/30 05:10:58;;;;;;;12.43;2.53;;;;;;;;;;5094539;28;20394;-55
2022/01/30 05:13:28;;;;;;;4.30;2.50;;;;;;;;;;5094263;28;20492;-57
2022/01/30 05:15:55;;;;;;;7.53;2.63;;;;;;;;;;5094541;28;20038;-58
2022/01/30 05:18:22;;;;;;;5.18;2.72;;;;;;;;;;5093614;28;20458;-58
2022/01/30 05:20:48;;;;;;;6.65;3.97;;;;;;;;;;5094462;28;20034;-58
2022/01/30 05:23:16;;;;;;;4.20;2.53;;;;;;;;;;5094221;28;20024;-58
2022/01/30 05:25:43;;;;;;;8.23;2.95;;;;;;;;;;5094060;28;20429;-58
2022/01/30 05:28:09;;;;;;;7.63;2.75;;;;;;;;;;5093556;28;20457;-58
2022/01/30 05:30:36;;;;;;;5.22;2.92;;;;;;;;;;5092842;28;20043;-58
2022/01/30 05:33:02;;;;;;;7.03;2.70;;;;;;;;;;5093610;28;20020;-58
2022/01/30 05:35:28;;;;;;;9.30;3.55;;;;;;;;;;5094069;28;20059;-58
2022/01/30 05:37:55;;;;;;;9.75;3.42;;;;;;;;;;5092587;28;20082;-58
2022/01/30 05:40:22;;;;;;;5.88;2.15;;;;;;;;;;5093819;28;20325;-58
2022/01/30 05:42:48;;;;;;;9.73;2.88;;;;;;;;;;5093863;28;20062;-57
2022/01/30 05:45:25;;;;;;;6.50;2.30;;;;;;;;;;5093898;28;20059;-58
2022/01/30 05:48:06;;;;;;;6.93;2.80;;;;;;;;;;5092989;28;20473;-58
2022/01/30 05:50:33;;;;;;;9.02;2.72;;;;;;;;;;5093865;28;20393;-57
2022/01/30 05:52:59;;;;;;;7.60;2.88;;;;;;;;;;5097634;28;20020;-58
2022/01/30 05:55:25;;;;;;;7.55;2.22;;;;;;;;;;5114041;28;20026;-58
2022/01/30 05:57:51;;;;;;;9.63;3.85;;;;;;;;;;5113026;28;20035;-57
2022/01/30 06:00:17;;;;;;;6.07;3.45;;;;;;;;;;5114136;28;20063;-58
2022/01/30 06:02:43;;;;;;;5.05;2.70;;;;;;;;;;5114027;28;20030;-57
2022/01/30 06:05:10;;;;;;;6.65;2.95;;;;;;;;;;5114067;28;20024;-58
2022/01/30 06:07:45;;;;;;;10.73;2.70;;;;;;;;;;5105107;28;20103;-57
2022/01/30 06:10:11;;;;;;;6.47;2.85;;;;;;;;;;5093406;28;20032;-57
2022/01/30 06:12:37;;;;;;;9.10;3.17;;;;;;;;;;5092815;28;20017;-58
2022/01/30 06:15:03;;;;;;;10.02;3.08;;;;;;;;;;5093526;28;20031;-58
2022/01/30 06:17:29;;;;;;;10.80;3.25;;;;;;;;;;5093199;28;20078;-58
2022/01/30 06:19:55;;;;;;;7.85;3.53;;;;;;;;;;5092620;28;20032;-56
2022/01/30 06:22:21;;;;;;;8.43;2.95;;;;;;;;;;5093040;28;20023;-58
2022/01/30 06:24:47;;;;;;;5.97;3.17;;;;;;;;;;5093166;28;20021;-58
2022/01/30 06:27:13;;;;;;;4.80;2.70;;;;;;;;;;5092740;28;20027;-58
2022/01/30 06:29:39;;;;;;;8.05;1.83;;;;;;;;;;5092591;28;20031;-57
2022/01/30 06:32:05;;;;;;;5.72;2.53;;;;;;;;;;5091410;28;20016;-56
2022/01/30 06:34:31;;;;;;;7.78;2.42;;;;;;;;;;5093053;28;20024;-58
2022/01/30 06:36:57;;;;;;;5.55;2.15;;;;;;;;;;5093010;28;20035;-58
2022/01/30 06:39:23;;;;;;;4.70;2.08;;;;;;;;;;5092226;28;20040;-58
2022/01/30 06:41:49;;;;;;;2.88;2.03;;;;;;;;;;5092501;28;20028;-57
2022/01/30 06:44:15;;;;;;;12.00;2.83;;;;;;;;;;5092838;28;20479;-58
2022/01/30 06:46:41;;;;;;;5.82;2.17;;;;;;;;;;5092717;28;20019;-56
2022/01/30 06:49:07;;;;;;;5.28;1.88;;;;;;;;;;5092455;28;20031;-58
2022/01/30 06:51:33;;;;;;;5.88;2.17;;;;;;;;;;5092649;28;20077;-57
2022/01/30 06:53:59;;;;;;;6.13;2.28;;;;;;;;;;5104917;28;20027;-58
2022/01/30 06:56:25;;;;;;;5.65;2.40;;;;;;;;;;5112860;28;20103;-58
2022/01/30 06:58:55;;;;;;;7.32;2.83;;;;;;;;;;5110839;28;20035;-58
2022/01/30 07:01:21;;;;;;;9.35;3.03;;;;;;;;;;5113105;28;20413;-58
2022/01/30 07:03:47;;;;;;;6.32;2.17;;;;;;;;;;5112825;28;20024;-58
2022/01/30 07:06:13;;;;;;;6.22;1.90;;;;;;;;;;5112878;28;20015;-57
2022/01/30 07:08:39;;;;;;;15.35;2.47;;;;;;;;;;5094474;28;20032;-56
2022/01/30 07:11:05;;;;;;;9.15;2.78;;;;;;;;;;5092216;28;20569;-58
2022/01/30 07:13:31;;;;;;;5.60;2.15;;;;;;;;;;5092297;28;20429;-58
2022/01/30 07:15:57;;;;;;;7.55;2.53;;;;;;;;;;5092596;28;20024;-58
2022/01/30 07:18:23;;;;;;;8.93;2.47;;;;;;;;;;5091783;28;20020;-58
2022/01/30 07:20:49;;;;;;;3.38;2.17;;;;;;;;;;5092089;28;20430;-59
2022/01/30 07:23:15;;;;;;;6.43;2.58;;;;;;;;;;5092125;28;20055;-58
2022/01/30 07:25:43;;;;;;;5.25;2.30;;;;;;;;;;5092076;28;20024;-58
2022/01/30 07:28:09;;;;;;;7.93;2.28;;;;;;;;;;5091561;28;20055;-58
2022/01/30 07:30:36;;;;;;;4.18;1.95;;;;;;;;;;5090314;28;20032;-58
2022/01/30 07:33:02;;;;;;;6.18;1.95;;;;;;;;;;5091922;28;20032;-59
2022/01/30 07:35:28;;;;;;;5.43;2.47;;;;;;;;;;5092284;28;20127;-58
2022/01/30 07:37:54;;;;;;;15.50;3.33;;;;;;;;;;5091328;28;20493;-57
2022/01/30 07:40:21;;;;;;;7.63;2.38;;;;;;;;;;5092030;28;20083;-58
2022/01/30 07:42:46;;;;;;;9.82;2.90;;;;;;;;;;5092134;28;20047;-58
2022/01/30 07:45:13;;;;;;;3.50;2.35;;;;;;;;;;5092034;28;20020;-58
2022/01/30 07:47:39;;;;;;;8.13;2.60;;;;;;;;;;5092142;28;20024;-57
2022/01/30 07:50:05;;;;;;;12.05;3.38;;;;;;;;;;5091383;28;20180;-57
2022/01/30 07:52:31;;;;;;;4.53;2.45;;;;;;;;;;5091776;28;20370;-57
2022/01/30 07:54:57;;;;;;;6.18;3.22;;;;;;;;;;5112503;28;20034;-58
2022/01/30 07:57:23;;;;;;;13.38;3.50;;;;;;;;;;5112439;28;20108;-58
2022/01/30 07:59:49;;;;;;;11.30;3.55;;;;;;;;;;5111900;28;20036;-58
2022/01/30 08:02:15;;;;;;;5.05;2.80;;;;;;;;;;5116113;28;20020;-58
2022/01/30 08:04:41;;;;;;;4.28;2.20;;;;;;;;;;5116008;28;20020;-58
2022/01/30 08:07:07;;;;;;;6.93;2.80;;;;;;;;;;5111167;28;20455;-57
2022/01/30 08:09:33;;;;;;;7.78;2.95;;;;;;;;;;5095025;28;20064;-56
2022/01/30 08:11:59;;;;;;;5.28;1.98;;;;;;;;;;5095904;28;20363;-57
2022/01/30 08:14:25;;;;;;;6.65;2.53;;;;;;;;;;5095493;28;20392;-57
2022/01/30 08:16:51;;;;;;;8.90;2.92;;;;;;;;;;5095533;28;20089;-58
2022/01/30 08:19:19;;;;;;;8.32;3.15;;;;;;;;;;5095087;28;20028;-58
2022/01/30 08:21:47;;;;;;;6.72;3.40;;;;;;;;;;5095166;28;20366;-57
2022/01/30 08:24:13;;;;;;;12.30;3.78;;;;;;;;;;5095382;28;20028;-58
2022/01/30 08:26:39;;;;;;;18.52;4.80;;;;;;;;;;5095556;28;20028;-58
2022/01/30 08:29:05;;;;;;;11.70;4.38;;;;;;;;;;5094542;28;20028;-56
2022/01/30 08:31:31;;;;;;;7.25;2.22;;;;;;;;;;5093555;28;20032;-58
2022/01/30 08:33:57;;;;;;;12.52;3.15;;;;;;;;;;5095132;28;20020;-58
2022/01/30 08:36:23;;;;;;;12.23;3.47;;;;;;;;;;5095174;28;20035;-58
2022/01/30 08:38:48;;;;;;;10.57;3.15;;;;;;;;;;5094321;28;20036;-58
2022/01/30 08:41:14;;;;;;;6.90;2.75;;;;;;;;;;5094978;28;20036;-58
2022/01/30 08:43:40;;;;;;;7.57;2.95;;;;;;;;;;5094954;28;20031;-58
2022/01/30 08:46:06;;;;;;;9.13;2.38;;;;;;;;;;5094610;28;20119;-58
2022/01/30 08:48:33;;;;;;;6.47;3.33;;;;;;;;;;5094074;28;20480;-59
2022/01/30 08:50:59;;;;;;;10.40;2.88;;;;;;;;;;5094291;28;20036;-59
2022/01/30 08:53:26;;;;;;;7.10;2.75;;;;;;;;;;5102027;28;20156;-58
2022/01/30 08:55:52;;;;;;;4.57;1.70;;;;;;;;;;5115081;28;20027;-59
2022/01/30 08:58:18;;;;;;;4.60;1.95;;;;;;;;;;5114484;28;20028;-57
2022/01/30 09:00:44;;;;;;;8.43;1.95;;;;;;;;;;5114730;28;20067;-57
2022/01/30 09:03:11;;;;;;;5.57;2.28;;;;;;;;;;5114820;28;20023;-59
2022/01/30 09:05:37;;;;;;;10.23;2.75;;;;;;;;;;5114575;28;20116;-59
2022/01/30 09:08:04;;;;;;;5.88;1.60;;;;;;;;;;5101886;28;20028;-59
2022/01/30 09:10:31;;;;;;;5.50;2.72;;;;;;;;;;5094464;28;20055;-55
2022/01/30 09:12:57;;;;;;;9.60;2.83;;;;;;;;;;5093334;28;20326;-56
2022/01/30 09:15:23;;;;;;;8.30;3.30;;;;;;;;;;5094136;28;20032;-56
2022/01/30 09:17:49;;;;;;;11.35;2.38;;;;;;;;;;5093829;28;20430;-57
2022/01/30 09:20:15;;;;;;;5.82;2.03;;;;;;;;;;5094066;28;20031;-56
2022/01/30 09:22:41;;;;;;;8.02;2.63;;;;;;;;;;5094248;28;20020;-57
2022/01/30 09:25:08;;;;;;;10.95;2.65;;;;;;;;;;5094014;28;20070;-57
2022/01/30 09:27:34;;;;;;;5.53;2.33;;;;;;;;;;5094408;28;20043;-57
2022/01/30 09:30:00;;;;;;;6.50;2.58;;;;;;;;;;5093595;28;20393;-57
2022/01/30 09:32:26;;;;;;;12.23;3.28;;;;;;;;;;5092361;28;20024;-56
2022/01/30 09:34:52;;;;;;;4.68;2.60;;;;;;;;;;5093701;28;20071;-57
2022/01/30 09:37:18;;;;;;;10.18;2.78;;;;;;;;;;5094307;28;20027;-57
2022/01/30 09:39:44;;;;;;;5.57;3.28;;;;;;;;;;5093138;28;20040;-57
2022/01/30 09:42:10;;;;;;;6.22;2.70;;;;;;;;;;5093783;28;20135;-57
2022/01/30 09:44:39;;;;;;;9.90;2.65;;;;;;;;;;5093805;28;20036;-56
2022/01/30 09:47:05;;;;;;;6.13;3.35;;;;;;;;;;5093575;28;20110;-57
2022/01/30 09:49:31;;;;;;;8.07;3.00;;;;;;;;;;5093056;28;20039;-56
2022/01/30 09:51:58;;;;;;;9.75;3.00;;;;;;;;;;5093914;28;20389;-56
2022/01/30 09:54:24;;;;;;;4.93;2.00;;;;;;;;;;5109472;28;20579;-56
2022/01/30 09:56:50;;;;;;;9.80;2.50;;;;;;;;;;5114049;28;20055;-57
2022/01/30 09:59:15;;;;;;;16.70;2.97;;;;;;;;;;5113323;28;20036;-57
2022/01/30 10:01:41;;;;;;;8.57;2.63;;;;;;;;;;5113441;28;20028;-54
2022/01/30 10:04:08;;;;;;;3.83;1.95;;;;;;;;;;5113739;28;20377;-54
2022/01/30 10:07:06;;;;;;;4.07;2.35;;;;;;;;;;5113849;28;20035;-57
2022/01/30 10:09:35;;;;;;;3.42;1.65;;;;;;;;;;5068153;28;20503;-56
2022/01/30 10:12:13;;;;;;;6.43;1.88;;;;;;;;;;5072987;28;20134;-55
2022/01/30 10:14:48;;;;;;;12.68;3.47;;;;;;;;;;5073256;28;20129;-57
2022/01/30 10:17:27;;;;;;;8.82;2.50;;;;;;;;;;5072962;28;20035;-53
2022/01/30 10:20:00;;;;;;;4.40;2.05;;;;;;;;;;5072099;28;20036;-55
2022/01/30 10:22:26;;;;;;;6.25;2.03;;;;;;;;;;5072433;28;20025;-57
2022/01/30 10:24:52;;;;;;;7.97;2.45;;;;;;;;;;5072925;28;20085;-56
2022/01/30 10:27:23;;;;;;;7.35;3.05;;;;;;;;;;5072954;28;20453;-55
2022/01/30 10:30:01;;;;;;;9.57;2.60;;;;;;;;;;5072346;28;20032;-55
2022/01/30 10:32:27;;;;;;;8.45;2.85;;;;;;;;;;5071094;28;20029;-57
2022/01/30 10:35:11;;;;;;;5.15;2.15;;;;;;;;;;5072597;28;20026;-58
2022/01/30 10:37:39;;;;;;;7.07;2.67;;;;;;;;;;5072938;28;20427;-58
2022/01/30 10:40:23;;;;;;;4.70;1.67;;;;;;;;;;5071915;28;20036;-56
2022/01/30 10:42:50;;;;;;;5.63;2.03;;;;;;;;;;5073019;28;20025;-57
2022/01/30 10:45:19;;;;;;;11.25;2.22;;;;;;;;;;5072524;28;20070;-59
2022/01/30 10:47:46;;;;;;;13.43;2.55;;;;;;;;;;5071980;28;20322;-56
2022/01/30 10:50:16;;;;;;;5.47;2.15;;;;;;;;;;5072498;28;20044;-57
2022/01/30 10:52:49;;;;;;;10.55;2.10;;;;;;;;;;5075462;28;20051;-57
2022/01/30 10:55:15;;;;;;;10.98;2.50;;;;;;;;;;5112874;28;20099;-58
2022/01/30 10:57:41;;;;;;;14.10;2.28;;;;;;;;;;5112888;28;20020;-58
2022/01/30 11:00:08;;;;;;;5.60;1.63;;;;;;;;;;5112462;28;20415;-58
2022/01/30 11:02:38;;;;;;;10.30;2.70;;;;;;;;;;5112550;28;20026;-58
2022/01/30 11:05:07;;;;;;;2.70;1.55;;;;;;;;;;5112882;28;20110;-56
2022/01/30 11:07:35;;;;;;;5.72;1.60;;;;;;;;;;5104558;28;20019;-58
2022/01/30 11:10:20;;;;;;;8.50;2.75;;;;;;;;;;5091872;28;20500;-57
2022/01/30 11:12:56;;;;;;;7.32;2.55;;;;;;;;;;5092104;28;20032;-58
2022/01/30 11:15:54;;;;;;;4.75;2.10;;;;;;;;;;5092452;28;20020;-57
2022/01/30 11:18:09;;;;;;;6.47;2.05;;;;;;;;;;5091295;28;20051;-58
2022/01/30 11:20:35;;;;;;;3.50;1.70;;;;;;;;;;5092600;28;20107;-58
2022/01/30 11:23:02;;;;;;;5.68;2.55;;;;;;;;;;5091979;28;20112;-58
2022/01/30 11:25:33;;;;;;;9.23;1.63;;;;;;;;;;5092320;28;20067;-58
2022/01/30 11:28:01;;;;;;;5.40;2.67;;;;;;;;;;5091645;28;20081;-59
2022/01/30 11:30:28;;;;;;;6.32;2.10;;;;;;;;;;5090274;28;20504;-59
2022/01/30 11:32:54;;;;;;;6.15;2.35;;;;;;;;;;5091618;28;20081;-59
2022/01/30 11:35:20;;;;;;;8.07;2.80;;;;;;;;;;5093778;28;20458;-58
2022/01/30 11:37:46;;;;;;;6.90;2.78;;;;;;;;;;5095685;28;20111;-59
2022/01/30 11:40:12;;;;;;;4.13;2.40;;;;;;;;;;5096416;28;20036;-58
2022/01/30 11:42:40;;;;;;;13.70;3.03;;;;;;;;;;5096150;28;20028;-57
2022/01/30 11:45:09;;;;;;;9.00;2.88;;;;;;;;;;5096230;28;20571;-58
2022/01/30 11:47:51;;;;;;;6.18;2.03;;;;;;;;;;5096088;28;20107;-58
2022/01/30 11:50:21;;;;;;;5.78;2.17;;;;;;;;;;5095807;28;20036;-59
2022/01/30 11:52:50;;;;;;;14.13;2.55;;;;;;;;;;5098127;28;20027;-57
2022/01/30 11:55:35;;;;;;;6.85;1.95;;;;;;;;;;5116456;28;20035;-56
2022/01/30 11:58:01;;;;;;;8.13;1.77;;;;;;;;;;5115522;28;20076;-58
2022/01/30 12:00:42;;;;;;;10.18;2.22;;;;;;;;;;5116110;28;20500;-58
2022/01/30 12:03:23;;;;;;;3.67;1.55;;;;;;;;;;5116361;28;20019;-58
2022/01/30 12:05:49;;;;;;;2.30;1.27;;;;;;;;;;5116099;28;20024;-59
2022/01/30 12:08:48;;;;;;;10.90;3.15;;;;;;;;;;5101273;28;20127;-57
2022/01/30 12:11:32;;;;;;;6.35;1.80;;;;;;;;;;5083013;28;20114;-58
2022/01/30 12:13:58;;;;;;;9.80;2.85;;;;;;;;;;5095851;28;20073;-56
2022/01/30 12:16:56;;;;;;;6.50;1.92;;;;;;;;;;5095585;28;20039;-58
2022/01/30 12:19:31;;;;;;;7.32;2.72;;;;;;;;;;5090320;28;20051;-58
2022/01/30 12:22:00;;;;;;;12.68;3.17;;;;;;;;;;5094872;28;20125;-58
2022/01/30 12:24:32;;;;;;;9.02;1.70;;;;;;;;;;5095876;28;20074;-58
2022/01/30 12:27:02;;;;;;;5.30;2.42;;;;;;;;;;5095523;28;20113;-58
2022/01/30 12:29:42;;;;;;;10.47;1.87;;;;;;;;;;5094880;28;20476;-58
2022/01/30 12:32:23;;;;;;;7.72;2.53;;;;;;;;;;5095422;28;20024;-58
2022/01/30 12:35:09;;;;;;;6.53;2.60;;;;;;;;;;5093714;28;20032;-58
2022/01/30 12:37:36;;;;;;;8.73;2.08;;;;;;;;;;5094810;28;20127;-58
2022/01/30 12:40:22;;;;;;;4.50;2.30;;;;;;;;;;5094458;28;20028;-57
2022/01/30 12:42:48;;;;;;;8.57;2.15;;;;;;;;;;5094667;28;20024;-58
2022/01/30 12:45:15;;;;;;;3.85;2.05;;;;;;;;;;5095239;28;20032;-58
2022/01/30 12:47:52;;;;;;;5.85;2.38;;;;;;;;;;5094784;28;20027;-59
2022/01/30 12:50:19;;;;;;;7.03;2.00;;;;;;;;;;5095316;28;20085;-58
2022/01/30 12:52:51;;;;;;;11.60;3.03;;;;;;;;;;5096362;28;20385;-58
2022/01/30 12:55:18;;;;;;;2.95;1.55;;;;;;;;;;5115184;28;20055;-56
2022/01/30 12:57:45;;;;;;;7.28;1.90;;;;;;;;;;5114766;28;20027;-58
2022/01/30 13:00:13;;;;;;;5.80;2.28;;;;;;;;;;5115148;28;20032;-58
2022/01/30 13:02:39;;;;;;;9.05;2.75;;;;;;;;;;5114846;28;20027;-59
2022/01/30 13:05:07;;;;;;;8.70;1.95;;;;;;;;;;5114634;28;20020;-57
2022/01/30 13:07:33;;;;;;;5.15;1.80;;;;;;;;;;5106926;28;20154;-58
2022/01/30 13:10:10;;;;;;;9.45;2.67;;;;;;;;;;5094208;28;20032;-59
2022/01/30 13:12:36;;;;;;;8.77;3.30;;;;;;;;;;5094405;28;20107;-58
2022/01/30 13:15:09;;;;;;;11.43;2.47;;;;;;;;;;5094481;28;20031;-59
2022/01/30 13:17:35;;;;;;;6.75;2.80;;;;;;;;;;5094261;28;20028;-58
2022/01/30 13:20:01;;;;;;;6.47;1.73;;;;;;;;;;5093828;28;20036;-59
2022/01/30 13:22:29;;;;;;;7.72;2.40;;;;;;;;;;5094083;28;20020;-57
2022/01/30 13:24:59;;;;;;;11.05;2.97;;;;;;;;;;5094220;28;20276;-58
2022/01/30 13:27:25;;;;;;;15.48;3.22;;;;;;;;;;5094416;28;20146;-58
2022/01/30 13:29:53;;;;;;;6.35;2.92;;;;;;;;;;5093381;28;20032;-56
2022/01/30 13:32:20;;;;;;;13.68;2.05;;;;;;;;;;5092308;28;20035;-58
2022/01/30 13:34:47;;;;;;;8.73;2.25;;;;;;;;;;5093638;28;20085;-58
2022/01/30 13:37:15;;;;;;;7.88;1.98;;;;;;;;;;5093089;28;20112;-58
2022/01/30 13:39:49;;;;;;;11.45;2.00;;;;;;;;;;5093027;28;20036;-57
2022/01/30 13:45:03;;;;;;;10.88;2.72;;;;;;;;;;5093742;28;20115;-59
2022/01/30 13:47:29;;;;;;;6.35;1.73;;;;;;;;;;5093981;28;20031;-59
2022/01/30 13:49:55;;;;;;;7.22;2.35;;;;;;;;;;5093268;28;20106;-58
2022/01/30 13:52:21;;;;;;;9.70;1.83;;;;;;;;;;5093622;28;20111;-58
2022/01/30 13:54:57;;;;;;;5.57;2.10;;;;;;;;;;5112664;28;20427;-58
2022/01/30 13:57:28;;;;;;;5.57;2.15;;;;;;;;;;5113230;28;20023;-57
2022/01/30 14:00:03;;;;;;;5.88;2.05;;;;;;;;;;5113271;28;20042;-59
2022/01/30 14:02:29;;;;;;;8.73;2.20;;;;;;;;;;5113657;28;20530;-57
2022/01/30 14:04:55;;;;;;;5.72;1.83;;;;;;;;;;5113628;28;20027;-59
2022/01/30 14:07:22;;;;;;;3.67;1.80;;;;;;;;;;5107481;28;20024;-58
2022/01/30 14:09:51;;;;;;;2.65;1.35;;;;;;;;;;5092588;28;20044;-58
2022/01/30 14:12:17;;;;;;;7.53;1.87;;;;;;;;;;5089513;28;20028;-59
2022/01/30 14:14:59;;;;;;;5.03;1.40;;;;;;;;;;5082588;28;20046;-58
2022/01/30 14:17:25;;;;;;;4.95;2.05;;;;;;;;;;5071288;28;20108;-59
2022/01/30 14:20:01;;;;;;;3.53;1.40;;;;;;;;;;5079777;28;20107;-59
2022/01/30 14:22:33;;;;;;;6.25;2.15;;;;;;;;;;5069844;28;20097;-59
2022/01/30 14:25:02;;;;;;;7.57;2.22;;;;;;;;;;5070057;28;20032;-59
2022/01/30 14:27:28;;;;;;;7.55;2.38;;;;;;;;;;5070263;28;20028;-57
2022/01/30 14:29:59;;;;;;;9.18;2.88;;;;;;;;;;5069616;28;20508;-58
2022/01/30 14:32:30;;;;;;;9.77;2.28;;;;;;;;;;5066872;28;20518;-58
2022/01/30 14:34:56;;;;;;;7.57;2.10;;;;;;;;;;5070640;28;20095;-58
2022/01/30 14:37:23;;;;;;;10.95;2.28;;;;;;;;;;5070018;28;20024;-58
2022/01/30 14:39:56;;;;;;;6.22;2.08;;;;;;;;;;5069351;28;20039;-59
2022/01/30 14:42:22;;;;;;;6.45;2.22;;;;;;;;;;5069705;28;20028;-56
2022/01/30 14:44:48;;;;;;;12.00;2.22;;;;;;;;;;5069821;28;20494;-58
2022/01/30 14:47:14;;;;;;;10.27;1.98;;;;;;;;;;5069474;28;20063;-58
2022/01/30 14:49:41;;;;;;;5.22;1.98;;;;;;;;;;5068897;28;20056;-58
2022/01/30 14:52:08;;;;;;;7.28;2.10;;;;;;;;;;5069622;28;20036;-58
2022/01/30 14:54:35;;;;;;;8.73;2.55;;;;;;;;;;5078975;28;20356;-58
2022/01/30 14:57:01;;;;;;;5.00;2.63;;;;;;;;;;5069766;28;20032;-59
2022/01/30 14:59:28;;;;;;;4.57;1.70;;;;;;;;;;5068969;28;20106;-57
2022/01/30 15:01:54;;;;;;;4.30;1.30;;;;;;;;;;5068959;28;20547;-58
2022/01/30 15:04:20;;;;;;;6.35;1.85;;;;;;;;;;5069780;28;20529;-58
2022/01/30 15:06:46;;;;;;;3.45;1.92;;;;;;;;;;5071329;28;20335;-58
2022/01/30 15:09:12;;;;;;;9.05;1.77;;;;;;;;;;5088198;28;20510;-60
2022/01/30 15:11:38;;;;;;;6.15;2.35;;;;;;;;;;5089389;28;20107;-58
2022/01/30 15:14:05;;;;;;;4.00;1.50;;;;;;;;;;5089138;28;20063;-59
2022/01/30 15:16:49;;;;;;;7.95;1.98;;;;;;;;;;5089308;28;20107;-59
2022/01/30 15:19:16;;;;;;;7.82;2.47;;;;;;;;;;5088420;28;20071;-59
2022/01/30 15:21:43;;;;;;;3.92;1.73;;;;;;;;;;5072091;28;20024;-58
2022/01/30 15:24:09;;;;;;;9.50;2.22;;;;;;;;;;5070373;28;20025;-57
2022/01/30 15:26:35;;;;;;;2.88;1.17;;;;;;;;;;5069284;28;20111;-58
2022/01/30 15:29:01;;;;;;;4.00;1.38;;;;;;;;;;5069786;28;20143;-59
2022/01/30 15:31:27;;;;;;;4.90;1.92;;;;;;;;;;5072224;28;20109;-58
2022/01/30 15:33:53;;;;;;;11.43;4.35;;;;;;;;;;5072037;28;20386;-59
2022/01/30 15:36:19;;;;;;;8.27;2.78;;;;;;;;;;5071861;28;20088;-59
2022/01/30 15:38:45;;;;;;;7.78;1.67;;;;;;;;;;5071023;28;20108;-59
2022/01/30 15:41:11;;;;;;;3.88;1.88;;;;;;;;;;5071969;28;20073;-58
2022/01/30 15:43:39;;;;;;;6.63;1.67;;;;;;;;;;5071572;28;20025;-59
2022/01/30 15:49:10;;;;;;;4.60;1.83;;;;;;;;;;5071217;28;20394;-59